sensor_id;sensor_type;location;lat;lon;timestamp;P1;durP1;ratioP1;P2;durP2;ratioP2
21634;SDS011;10979;48.306;9.830;2023-03-24T00:00:12;0.10;;;0.10;;
21634;SDS011;10979;48.306;9.830;2023-03-24T00:02:40;0.10;;;0.10;;
21634;SDS011;10979;48.306;9.830;2023-03-24T00:05:07;0.10;;;0.10;;
21634;SDS011;10979;48.306;9.830;2023-03-24T00:07:35;0.10;;;0.10;;
21634;SDS011;10979;48.306;9.830;2023-03-24T00:10:04;0.10;;;0.10;;
21634;SDS011;10979;48.306;9.830;2023-03-24T00:12:32;0.10;;;0.10;;
21634;SDS011;10979;48.306;9.830;2023-03-24T00:14:58;0.10;;;0.10;;
21634;SDS011;10979;48.306;9.830;2023-03-24T00:17:26;0.10;;;0.10;;
21634;SDS011;10979;48.306;9.830;2023-03-24T00:19:53;0.10;;;0.10;;
21634;SDS011;10979;48.306;9.830;2023-03-24T00:22:20;0.10;;;0.10;;
21634;SDS011;10979;48.306;9.830;2023-03-24T00:24:45;0.10;;;0.10;;
21634;SDS011;10979;48.306;9.830;2023-03-24T00:27:11;0.10;;;0.10;;
21634;SDS011;10979;48.306;9.830;2023-03-24T00:29:41;0.10;;;0.10;;
21634;SDS011;10979;48.306;9.830;2023-03-24T00:32:07;0.10;;;0.10;;
21634;SDS011;10979;48.306;9.830;2023-03-24T00:34:33;0.10;;;0.10;;
21634;SDS011;10979;48.306;9.830;2023-03-24T00:37:02;0.10;;;0.10;;
21634;SDS011;10979;48.306;9.830;2023-03-24T00:39:29;0.10;;;0.10;;
21634;SDS011;10979;48.306;9.830;2023-03-24T00:41:54;0.10;;;0.10;;
21634;SDS011;10979;48.306;9.830;2023-03-24T00:44:23;0.10;;;0.10;;
21634;SDS011;10979;48.306;9.830;2023-03-24T00:46:49;0.10;;;0.10;;
21634;SDS011;10979;48.306;9.830;2023-03-24T00:49:22;0.10;;;0.10;;
21634;SDS011;10979;48.306;9.830;2023-03-24T00:54:44;0.10;;;0.10;;
21634;SDS011;10979;48.306;9.830;2023-03-24T00:57:12;0.10;;;0.10;;
21634;SDS011;10979;48.306;9.830;2023-03-24T00:59:39;0.10;;;0.10;;
21634;SDS011;10979;48.306;9.830;2023-03-24T01:02:12;0.10;;;0.10;;
21634;SDS011;10979;48.306;9.830;2023-03-24T01:04:46;0.10;;;0.10;;
21634;SDS011;10979;48.306;9.830;2023-03-24T01:07:18;0.10;;;0.10;;
21634;SDS011;10979;48.306;9.830;2023-03-24T01:09:48;0.10;;;0.10;;
21634;SDS011;10979;48.306;9.830;2023-03-24T01:12:42;0.10;;;0.10;;
21634;SDS011;10979;48.306;9.830;2023-03-24T01:15:10;0.10;;;0.10;;
21634;SDS011;10979;48.306;9.830;2023-03-24T01:20:04;0.20;;;0.20;;
21634;SDS011;10979;48.306;9.830;2023-03-24T01:22:35;0.20;;;0.20;;
21634;SDS011;10979;48.306;9.830;2023-03-24T01:25:10;0.20;;;0.20;;
21634;SDS011;10979;48.306;9.830;2023-03-24T01:27:40;0.10;;;0.10;;
21634;SDS011;10979;48.306;9.830;2023-03-24T01:30:05;0.20;;;0.20;;
21634;SDS011;10979;48.306;9.830;2023-03-24T01:32:33;0.10;;;0.10;;
21634;SDS011;10979;48.306;9.830;2023-03-24T01:34:58;0.10;;;0.10;;
21634;SDS011;10979;48.306;9.830;2023-03-24T01:37:24;0.10;;;0.10;;
21634;SDS011;10979;48.306;9.830;2023-03-24T01:39:50;0.10;;;0.10;;
21634;SDS011;10979;48.306;9.830;2023-03-24T01:42:16;0.10;;;0.10;;
21634;SDS011;10979;48.306;9.830;2023-03-24T01:44:45;0.10;;;0.10;;
21634;SDS011;10979;48.306;9.830;2023-03-24T01:47:12;0.10;;;0.10;;
21634;SDS011;10979;48.306;9.830;2023-03-24T01:49:44;0.10;;;0.10;;
21634;SDS011;10979;48.306;9.830;2023-03-24T01:52:18;0.10;;;0.10;;
21634;SDS011;10979;48.306;9.830;2023-03-24T01:54:49;0.10;;;0.10;;
21634;SDS011;10979;48.306;9.830;2023-03-24T01:57:23;0.10;;;0.10;;
21634;SDS011;10979;48.306;9.830;2023-03-24T01:59:54;0.20;;;0.20;;
21634;SDS011;10979;48.306;9.830;2023-03-24T02:02:22;0.20;;;0.20;;
21634;SDS011;10979;48.306;9.830;2023-03-24T02:04:52;0.15;;;0.15;;
21634;SDS011;10979;48.306;9.830;2023-03-24T02:10:29;0.10;;;0.10;;
21634;SDS011;10979;48.306;9.830;2023-03-24T02:12:57;0.10;;;0.10;;
21634;SDS011;10979;48.306;9.830;2023-03-24T02:15:24;0.20;;;0.20;;
21634;SDS011;10979;48.306;9.830;2023-03-24T02:43:15;0.10;;;0.10;;
21634;SDS011;10979;48.306;9.830;2023-03-24T02:51:03;0.10;;;0.10;;
21634;SDS011;10979;48.306;9.830;2023-03-24T02:56:11;0.20;;;0.20;;
21634;SDS011;10979;48.306;9.830;2023-03-24T02:58:59;0.10;;;0.10;;
21634;SDS011;10979;48.306;9.830;2023-03-24T03:04:10;0.20;;;0.20;;
21634;SDS011;10979;48.306;9.830;2023-03-24T03:06:42;0.10;;;0.10;;
21634;SDS011;10979;48.306;9.830;2023-03-24T03:09:14;0.10;;;0.10;;
21634;SDS011;10979;48.306;9.830;2023-03-24T03:11:42;0.15;;;0.15;;
21634;SDS011;10979;48.306;9.830;2023-03-24T03:14:13;0.10;;;0.10;;
21634;SDS011;10979;48.306;9.830;2023-03-24T03:16:45;0.10;;;0.10;;
21634;SDS011;10979;48.306;9.830;2023-03-24T03:19:21;0.10;;;0.10;;
21634;SDS011;10979;48.306;9.830;2023-03-24T03:21:51;0.13;;;0.13;;
21634;SDS011;10979;48.306;9.830;2023-03-24T03:24:40;0.15;;;0.15;;
21634;SDS011;10979;48.306;9.830;2023-03-24T03:27:08;0.20;;;0.20;;
21634;SDS011;10979;48.306;9.830;2023-03-24T03:29:58;0.10;;;0.10;;
21634;SDS011;10979;48.306;9.830;2023-03-24T03:32:32;0.10;;;0.10;;
21634;SDS011;10979;48.306;9.830;2023-03-24T03:35:13;0.10;;;0.10;;
21634;SDS011;10979;48.306;9.830;2023-03-24T03:37:49;0.10;;;0.10;;
21634;SDS011;10979;48.306;9.830;2023-03-24T03:40:28;0.20;;;0.20;;
21634;SDS011;10979;48.306;9.830;2023-03-24T03:43:06;0.10;;;0.10;;
21634;SDS011;10979;48.306;9.830;2023-03-24T03:45:32;0.10;;;0.10;;
21634;SDS011;10979;48.306;9.830;2023-03-24T03:47:58;0.10;;;0.10;;
21634;SDS011;10979;48.306;9.830;2023-03-24T03:50:25;0.20;;;0.20;;
21634;SDS011;10979;48.306;9.830;2023-03-24T03:52:51;0.10;;;0.10;;
21634;SDS011;10979;48.306;9.830;2023-03-24T03:55:17;0.10;;;0.10;;
21634;SDS011;10979;48.306;9.830;2023-03-24T03:57:43;0.10;;;0.10;;
21634;SDS011;10979;48.306;9.830;2023-03-24T04:00:14;0.10;;;0.10;;
21634;SDS011;10979;48.306;9.830;2023-03-24T04:03:02;0.10;;;0.10;;
21634;SDS011;10979;48.306;9.830;2023-03-24T04:13:48;0.10;;;0.10;;
21634;SDS011;10979;48.306;9.830;2023-03-24T04:24:55;0.10;;;0.10;;
21634;SDS011;10979;48.306;9.830;2023-03-24T04:27:57;0.10;;;0.10;;
21634;SDS011;10979;48.306;9.830;2023-03-24T04:30:42;0.20;;;0.20;;
21634;SDS011;10979;48.306;9.830;2023-03-24T04:33:19;0.15;;;0.15;;
21634;SDS011;10979;48.306;9.830;2023-03-24T04:35:57;0.13;;;0.13;;
21634;SDS011;10979;48.306;9.830;2023-03-24T04:38:30;0.10;;;0.10;;
21634;SDS011;10979;48.306;9.830;2023-03-24T04:40:59;0.10;;;0.10;;
21634;SDS011;10979;48.306;9.830;2023-03-24T04:43:27;0.10;;;0.10;;
21634;SDS011;10979;48.306;9.830;2023-03-24T04:46:00;0.10;;;0.10;;
21634;SDS011;10979;48.306;9.830;2023-03-24T04:48:27;0.13;;;0.13;;
21634;SDS011;10979;48.306;9.830;2023-03-24T04:53:20;0.10;;;0.10;;
21634;SDS011;10979;48.306;9.830;2023-03-24T04:55:56;0.10;;;0.10;;
21634;SDS011;10979;48.306;9.830;2023-03-24T04:58:35;0.10;;;0.10;;
21634;SDS011;10979;48.306;9.830;2023-03-24T05:01:00;0.10;;;0.10;;
21634;SDS011;10979;48.306;9.830;2023-03-24T05:03:27;0.20;;;0.20;;
21634;SDS011;10979;48.306;9.830;2023-03-24T05:05:52;0.10;;;0.10;;
21634;SDS011;10979;48.306;9.830;2023-03-24T05:08:18;0.10;;;0.10;;
21634;SDS011;10979;48.306;9.830;2023-03-24T05:10:45;0.20;;;0.20;;
21634;SDS011;10979;48.306;9.830;2023-03-24T05:13:11;0.10;;;0.10;;
21634;SDS011;10979;48.306;9.830;2023-03-24T05:15:37;0.10;;;0.10;;
21634;SDS011;10979;48.306;9.830;2023-03-24T05:18:03;0.10;;;0.10;;
21634;SDS011;10979;48.306;9.830;2023-03-24T05:20:29;0.20;;;0.20;;
21634;SDS011;10979;48.306;9.830;2023-03-24T05:22:55;0.20;;;0.20;;
21634;SDS011;10979;48.306;9.830;2023-03-24T05:25:21;0.20;;;0.20;;
21634;SDS011;10979;48.306;9.830;2023-03-24T05:27:47;0.20;;;0.20;;
21634;SDS011;10979;48.306;9.830;2023-03-24T05:30:13;0.10;;;0.10;;
21634;SDS011;10979;48.306;9.830;2023-03-24T05:32:40;0.10;;;0.10;;
21634;SDS011;10979;48.306;9.830;2023-03-24T05:35:05;0.20;;;0.20;;
21634;SDS011;10979;48.306;9.830;2023-03-24T05:37:31;0.10;;;0.10;;
21634;SDS011;10979;48.306;9.830;2023-03-24T05:39:57;0.10;;;0.10;;
21634;SDS011;10979;48.306;9.830;2023-03-24T05:42:23;0.10;;;0.10;;
21634;SDS011;10979;48.306;9.830;2023-03-24T05:44:48;0.10;;;0.10;;
21634;SDS011;10979;48.306;9.830;2023-03-24T05:47:14;0.10;;;0.10;;
21634;SDS011;10979;48.306;9.830;2023-03-24T05:49:40;0.10;;;0.10;;
21634;SDS011;10979;48.306;9.830;2023-03-24T05:52:07;0.10;;;0.10;;
21634;SDS011;10979;48.306;9.830;2023-03-24T05:54:33;0.20;;;0.20;;
21634;SDS011;10979;48.306;9.830;2023-03-24T05:56:59;0.10;;;0.10;;
21634;SDS011;10979;48.306;9.830;2023-03-24T05:59:25;0.10;;;0.10;;
21634;SDS011;10979;48.306;9.830;2023-03-24T06:01:51;0.10;;;0.10;;
21634;SDS011;10979;48.306;9.830;2023-03-24T06:04:17;0.20;;;0.20;;
21634;SDS011;10979;48.306;9.830;2023-03-24T06:06:44;0.10;;;0.10;;
21634;SDS011;10979;48.306;9.830;2023-03-24T06:09:11;0.10;;;0.10;;
21634;SDS011;10979;48.306;9.830;2023-03-24T06:11:38;0.13;;;0.13;;
21634;SDS011;10979;48.306;9.830;2023-03-24T06:14:04;0.10;;;0.10;;
21634;SDS011;10979;48.306;9.830;2023-03-24T06:16:29;0.10;;;0.10;;
21634;SDS011;10979;48.306;9.830;2023-03-24T06:18:57;0.10;;;0.10;;
21634;SDS011;10979;48.306;9.830;2023-03-24T06:21:24;0.10;;;0.10;;
21634;SDS011;10979;48.306;9.830;2023-03-24T06:23:54;0.10;;;0.10;;
21634;SDS011;10979;48.306;9.830;2023-03-24T06:26:21;0.10;;;0.10;;
21634;SDS011;10979;48.306;9.830;2023-03-24T06:28:46;0.10;;;0.10;;
21634;SDS011;10979;48.306;9.830;2023-03-24T06:31:15;0.10;;;0.10;;
21634;SDS011;10979;48.306;9.830;2023-03-24T06:33:44;0.10;;;0.10;;
21634;SDS011;10979;48.306;9.830;2023-03-24T06:36:10;0.10;;;0.10;;
21634;SDS011;10979;48.306;9.830;2023-03-24T06:38:37;0.10;;;0.10;;
21634;SDS011;10979;48.306;9.830;2023-03-24T06:41:03;0.10;;;0.10;;
21634;SDS011;10979;48.306;9.830;2023-03-24T06:43:29;0.10;;;0.10;;
21634;SDS011;10979;48.306;9.830;2023-03-24T06:45:55;0.10;;;0.10;;
21634;SDS011;10979;48.306;9.830;2023-03-24T06:48:21;0.10;;;0.10;;
21634;SDS011;10979;48.306;9.830;2023-03-24T06:50:47;0.10;;;0.10;;
21634;SDS011;10979;48.306;9.830;2023-03-24T06:53:13;0.10;;;0.10;;
21634;SDS011;10979;48.306;9.830;2023-03-24T06:55:38;0.10;;;0.10;;
21634;SDS011;10979;48.306;9.830;2023-03-24T06:58:04;0.10;;;0.10;;
21634;SDS011;10979;48.306;9.830;2023-03-24T07:00:30;0.10;;;0.10;;
21634;SDS011;10979;48.306;9.830;2023-03-24T07:02:56;0.10;;;0.10;;
21634;SDS011;10979;48.306;9.830;2023-03-24T07:05:21;0.10;;;0.10;;
21634;SDS011;10979;48.306;9.830;2023-03-24T07:07:47;0.10;;;0.10;;
21634;SDS011;10979;48.306;9.830;2023-03-24T07:10:14;0.10;;;0.10;;
21634;SDS011;10979;48.306;9.830;2023-03-24T07:12:40;0.10;;;0.10;;
21634;SDS011;10979;48.306;9.830;2023-03-24T07:15:06;0.10;;;0.10;;
21634;SDS011;10979;48.306;9.830;2023-03-24T07:17:33;0.10;;;0.10;;
21634;SDS011;10979;48.306;9.830;2023-03-24T07:19:59;0.10;;;0.10;;
21634;SDS011;10979;48.306;9.830;2023-03-24T07:22:25;0.10;;;0.10;;
21634;SDS011;10979;48.306;9.830;2023-03-24T07:24:50;0.10;;;0.10;;
21634;SDS011;10979;48.306;9.830;2023-03-24T07:27:16;0.10;;;0.10;;
21634;SDS011;10979;48.306;9.830;2023-03-24T07:29:42;0.10;;;0.10;;
21634;SDS011;10979;48.306;9.830;2023-03-24T07:32:08;0.10;;;0.10;;
21634;SDS011;10979;48.306;9.830;2023-03-24T07:34:34;0.10;;;0.10;;
21634;SDS011;10979;48.306;9.830;2023-03-24T07:37:00;0.10;;;0.10;;
21634;SDS011;10979;48.306;9.830;2023-03-24T07:39:26;0.00;;;0.00;;
21634;SDS011;10979;48.306;9.830;2023-03-24T07:41:52;0.10;;;0.10;;
21634;SDS011;10979;48.306;9.830;2023-03-24T07:44:17;0.10;;;0.10;;
21634;SDS011;10979;48.306;9.830;2023-03-24T07:46:43;0.05;;;0.05;;
21634;SDS011;10979;48.306;9.830;2023-03-24T07:49:09;0.10;;;0.10;;
21634;SDS011;10979;48.306;9.830;2023-03-24T07:51:35;0.10;;;0.10;;
21634;SDS011;10979;48.306;9.830;2023-03-24T07:54:01;0.10;;;0.10;;
21634;SDS011;10979;48.306;9.830;2023-03-24T07:56:27;0.10;;;0.10;;
21634;SDS011;10979;48.306;9.830;2023-03-24T07:58:52;0.00;;;0.00;;
21634;SDS011;10979;48.306;9.830;2023-03-24T08:01:18;0.00;;;0.00;;
21634;SDS011;10979;48.306;9.830;2023-03-24T08:03:43;0.10;;;0.10;;
21634;SDS011;10979;48.306;9.830;2023-03-24T08:06:10;0.10;;;0.10;;
21634;SDS011;10979;48.306;9.830;2023-03-24T08:08:36;0.08;;;0.08;;
21634;SDS011;10979;48.306;9.830;2023-03-24T08:11:02;0.10;;;0.10;;
21634;SDS011;10979;48.306;9.830;2023-03-24T08:13:28;0.00;;;0.00;;
21634;SDS011;10979;48.306;9.830;2023-03-24T08:15:54;0.00;;;0.00;;
21634;SDS011;10979;48.306;9.830;2023-03-24T08:18:20;0.10;;;0.10;;
21634;SDS011;10979;48.306;9.830;2023-03-24T08:20:47;0.10;;;0.10;;
21634;SDS011;10979;48.306;9.830;2023-03-24T08:23:14;0.00;;;0.00;;
21634;SDS011;10979;48.306;9.830;2023-03-24T08:25:40;0.00;;;0.00;;
21634;SDS011;10979;48.306;9.830;2023-03-24T08:28:06;0.00;;;0.00;;
21634;SDS011;10979;48.306;9.830;2023-03-24T08:30:31;0.00;;;0.00;;
21634;SDS011;10979;48.306;9.830;2023-03-24T08:32:58;0.00;;;0.00;;
21634;SDS011;10979;48.306;9.830;2023-03-24T08:35:29;0.00;;;0.00;;
21634;SDS011;10979;48.306;9.830;2023-03-24T08:37:56;0.00;;;0.00;;
21634;SDS011;10979;48.306;9.830;2023-03-24T08:40:25;0.00;;;0.00;;
21634;SDS011;10979;48.306;9.830;2023-03-24T08:42:53;0.00;;;0.00;;
21634;SDS011;10979;48.306;9.830;2023-03-24T08:45:24;0.10;;;0.10;;
21634;SDS011;10979;48.306;9.830;2023-03-24T08:47:52;0.00;;;0.00;;
21634;SDS011;10979;48.306;9.830;2023-03-24T08:50:20;0.00;;;0.00;;
21634;SDS011;10979;48.306;9.830;2023-03-24T08:52:48;0.00;;;0.00;;
21634;SDS011;10979;48.306;9.830;2023-03-24T08:55:14;0.05;;;0.05;;
21634;SDS011;10979;48.306;9.830;2023-03-24T08:57:42;0.00;;;0.00;;
21634;SDS011;10979;48.306;9.830;2023-03-24T09:00:08;0.00;;;0.00;;
21634;SDS011;10979;48.306;9.830;2023-03-24T09:02:38;0.00;;;0.00;;
21634;SDS011;10979;48.306;9.830;2023-03-24T09:05:07;0.00;;;0.00;;
21634;SDS011;10979;48.306;9.830;2023-03-24T09:07:34;0.00;;;0.00;;
21634;SDS011;10979;48.306;9.830;2023-03-24T09:09:59;0.00;;;0.00;;
21634;SDS011;10979;48.306;9.830;2023-03-24T09:12:25;0.00;;;0.00;;
21634;SDS011;10979;48.306;9.830;2023-03-24T09:14:51;0.00;;;0.00;;
21634;SDS011;10979;48.306;9.830;2023-03-24T09:17:17;0.00;;;0.00;;
21634;SDS011;10979;48.306;9.830;2023-03-24T09:19:43;0.00;;;0.00;;
21634;SDS011;10979;48.306;9.830;2023-03-24T09:22:09;0.00;;;0.00;;
21634;SDS011;10979;48.306;9.830;2023-03-24T09:24:35;0.05;;;0.05;;
21634;SDS011;10979;48.306;9.830;2023-03-24T09:27:01;0.00;;;0.00;;
21634;SDS011;10979;48.306;9.830;2023-03-24T09:29:27;0.08;;;0.08;;
21634;SDS011;10979;48.306;9.830;2023-03-24T09:31:54;0.00;;;0.00;;
21634;SDS011;10979;48.306;9.830;2023-03-24T09:34:20;0.00;;;0.00;;
21634;SDS011;10979;48.306;9.830;2023-03-24T09:36:47;0.00;;;0.00;;
21634;SDS011;10979;48.306;9.830;2023-03-24T09:39:12;0.00;;;0.00;;
21634;SDS011;10979;48.306;9.830;2023-03-24T09:41:38;0.00;;;0.00;;
21634;SDS011;10979;48.306;9.830;2023-03-24T09:44:08;0.00;;;0.00;;
21634;SDS011;10979;48.306;9.830;2023-03-24T09:46:52;0.00;;;0.00;;
21634;SDS011;10979;48.306;9.830;2023-03-24T09:49:26;0.00;;;0.00;;
21634;SDS011;10979;48.306;9.830;2023-03-24T09:52:05;0.00;;;0.00;;
21634;SDS011;10979;48.306;9.830;2023-03-24T09:54:47;0.00;;;0.00;;
21634;SDS011;10979;48.306;9.830;2023-03-24T10:02:52;0.00;;;0.00;;
21634;SDS011;10979;48.306;9.830;2023-03-24T10:05:25;0.00;;;0.00;;
21634;SDS011;10979;48.306;9.830;2023-03-24T10:08:16;0.00;;;0.00;;
21634;SDS011;10979;48.306;9.830;2023-03-24T10:11:01;0.00;;;0.00;;
21634;SDS011;10979;48.306;9.830;2023-03-24T10:13:50;0.00;;;0.00;;
21634;SDS011;10979;48.306;9.830;2023-03-24T10:16:28;0.00;;;0.00;;
21634;SDS011;10979;48.306;9.830;2023-03-24T10:25:20;0.00;;;0.00;;
21634;SDS011;10979;48.306;9.830;2023-03-24T10:27:50;0.00;;;0.00;;
21634;SDS011;10979;48.306;9.830;2023-03-24T10:30:19;0.00;;;0.00;;
21634;SDS011;10979;48.306;9.830;2023-03-24T10:32:47;0.00;;;0.00;;
21634;SDS011;10979;48.306;9.830;2023-03-24T10:35:23;0.00;;;0.00;;
21634;SDS011;10979;48.306;9.830;2023-03-24T10:37:57;0.00;;;0.00;;
21634;SDS011;10979;48.306;9.830;2023-03-24T10:40:31;0.00;;;0.00;;
21634;SDS011;10979;48.306;9.830;2023-03-24T10:42:57;0.00;;;0.00;;
21634;SDS011;10979;48.306;9.830;2023-03-24T10:45:27;0.00;;;0.00;;
21634;SDS011;10979;48.306;9.830;2023-03-24T10:47:56;0.00;;;0.00;;
21634;SDS011;10979;48.306;9.830;2023-03-24T10:50:25;0.00;;;0.00;;
21634;SDS011;10979;48.306;9.830;2023-03-24T10:52:55;0.00;;;0.00;;
21634;SDS011;10979;48.306;9.830;2023-03-24T10:55:22;0.00;;;0.00;;
21634;SDS011;10979;48.306;9.830;2023-03-24T10:57:54;0.00;;;0.00;;
21634;SDS011;10979;48.306;9.830;2023-03-24T11:00:22;0.00;;;0.00;;
21634;SDS011;10979;48.306;9.830;2023-03-24T11:05:26;0.00;;;0.00;;
21634;SDS011;10979;48.306;9.830;2023-03-24T11:07:55;0.00;;;0.00;;
21634;SDS011;10979;48.306;9.830;2023-03-24T11:10:36;0.00;;;0.00;;
21634;SDS011;10979;48.306;9.830;2023-03-24T11:13:02;0.00;;;0.00;;
21634;SDS011;10979;48.306;9.830;2023-03-24T11:15:33;0.00;;;0.00;;
21634;SDS011;10979;48.306;9.830;2023-03-24T11:23:24;0.00;;;0.00;;
21634;SDS011;10979;48.306;9.830;2023-03-24T11:26:06;0.00;;;0.00;;
21634;SDS011;10979;48.306;9.830;2023-03-24T11:28:49;0.00;;;0.00;;
21634;SDS011;10979;48.306;9.830;2023-03-24T11:31:20;0.00;;;0.00;;
21634;SDS011;10979;48.306;9.830;2023-03-24T11:39:40;0.00;;;0.00;;
21634;SDS011;10979;48.306;9.830;2023-03-24T11:44:45;0.00;;;0.00;;
21634;SDS011;10979;48.306;9.830;2023-03-24T11:47:12;0.00;;;0.00;;
21634;SDS011;10979;48.306;9.830;2023-03-24T11:52:55;0.00;;;0.00;;
21634;SDS011;10979;48.306;9.830;2023-03-24T11:58:38;0.00;;;0.00;;
21634;SDS011;10979;48.306;9.830;2023-03-24T12:03:57;0.00;;;0.00;;
21634;SDS011;10979;48.306;9.830;2023-03-24T12:09:54;0.00;;;0.00;;
21634;SDS011;10979;48.306;9.830;2023-03-24T12:23:08;0.00;;;0.00;;
21634;SDS011;10979;48.306;9.830;2023-03-24T12:25:59;0.00;;;0.00;;
21634;SDS011;10979;48.306;9.830;2023-03-24T12:28:51;0.00;;;0.00;;
21634;SDS011;10979;48.306;9.830;2023-03-24T12:42:44;0.00;;;0.00;;
21634;SDS011;10979;48.306;9.830;2023-03-24T12:50:47;0.00;;;0.00;;
21634;SDS011;10979;48.306;9.830;2023-03-24T12:55:52;0.00;;;0.00;;
21634;SDS011;10979;48.306;9.830;2023-03-24T12:58:19;0.00;;;0.00;;
21634;SDS011;10979;48.306;9.830;2023-03-24T13:01:00;0.00;;;0.00;;
21634;SDS011;10979;48.306;9.830;2023-03-24T13:06:16;0.00;;;0.00;;
21634;SDS011;10979;48.306;9.830;2023-03-24T13:14:47;0.00;;;0.00;;
21634;SDS011;10979;48.306;9.830;2023-03-24T13:17:34;0.00;;;0.00;;
21634;SDS011;10979;48.306;9.830;2023-03-24T13:20:05;0.00;;;0.00;;
21634;SDS011;10979;48.306;9.830;2023-03-24T13:22:36;0.00;;;0.00;;
21634;SDS011;10979;48.306;9.830;2023-03-24T13:25:03;0.00;;;0.00;;
21634;SDS011;10979;48.306;9.830;2023-03-24T13:27:44;0.00;;;0.00;;
21634;SDS011;10979;48.306;9.830;2023-03-24T13:30:14;0.00;;;0.00;;
21634;SDS011;10979;48.306;9.830;2023-03-24T13:41:16;0.00;;;0.00;;
21634;SDS011;10979;48.306;9.830;2023-03-24T13:43:46;0.00;;;0.00;;
21634;SDS011;10979;48.306;9.830;2023-03-24T13:46:14;0.00;;;0.00;;
21634;SDS011;10979;48.306;9.830;2023-03-24T13:48:41;0.00;;;0.00;;
21634;SDS011;10979;48.306;9.830;2023-03-24T13:51:29;0.00;;;0.00;;
21634;SDS011;10979;48.306;9.830;2023-03-24T13:53:57;0.00;;;0.00;;
21634;SDS011;10979;48.306;9.830;2023-03-24T14:04:45;0.00;;;0.00;;
21634;SDS011;10979;48.306;9.830;2023-03-24T14:07:48;0.00;;;0.00;;
21634;SDS011;10979;48.306;9.830;2023-03-24T14:12:52;0.00;;;0.00;;
21634;SDS011;10979;48.306;9.830;2023-03-24T14:17:46;0.00;;;0.00;;
21634;SDS011;10979;48.306;9.830;2023-03-24T14:20:23;0.00;;;0.00;;
21634;SDS011;10979;48.306;9.830;2023-03-24T14:22:59;0.00;;;0.00;;
21634;SDS011;10979;48.306;9.830;2023-03-24T14:25:26;0.00;;;0.00;;
21634;SDS011;10979;48.306;9.830;2023-03-24T14:28:05;0.00;;;0.00;;
21634;SDS011;10979;48.306;9.830;2023-03-24T14:30:58;0.00;;;0.00;;
21634;SDS011;10979;48.306;9.830;2023-03-24T14:33:26;0.00;;;0.00;;
21634;SDS011;10979;48.306;9.830;2023-03-24T14:36:03;0.00;;;0.00;;
21634;SDS011;10979;48.306;9.830;2023-03-24T14:38:33;0.00;;;0.00;;
21634;SDS011;10979;48.306;9.830;2023-03-24T14:41:04;0.00;;;0.00;;
21634;SDS011;10979;48.306;9.830;2023-03-24T14:46:01;0.00;;;0.00;;
21634;SDS011;10979;48.306;9.830;2023-03-24T14:48:31;0.00;;;0.00;;
21634;SDS011;10979;48.306;9.830;2023-03-24T14:54:00;0.00;;;0.00;;
21634;SDS011;10979;48.306;9.830;2023-03-24T14:56:28;0.00;;;0.00;;
21634;SDS011;10979;48.306;9.830;2023-03-24T14:59:00;0.00;;;0.00;;
21634;SDS011;10979;48.306;9.830;2023-03-24T15:01:33;0.00;;;0.00;;
21634;SDS011;10979;48.306;9.830;2023-03-24T15:04:00;0.00;;;0.00;;
21634;SDS011;10979;48.306;9.830;2023-03-24T15:06:29;0.00;;;0.00;;
21634;SDS011;10979;48.306;9.830;2023-03-24T15:08:56;0.00;;;0.00;;
21634;SDS011;10979;48.306;9.830;2023-03-24T15:11:26;0.00;;;0.00;;
21634;SDS011;10979;48.306;9.830;2023-03-24T15:13:57;0.00;;;0.00;;
21634;SDS011;10979;48.306;9.830;2023-03-24T15:16:34;0.00;;;0.00;;
21634;SDS011;10979;48.306;9.830;2023-03-24T15:19:06;0.00;;;0.00;;
21634;SDS011;10979;48.306;9.830;2023-03-24T15:21:46;0.00;;;0.00;;
21634;SDS011;10979;48.306;9.830;2023-03-24T15:26:50;0.00;;;0.00;;
21634;SDS011;10979;48.306;9.830;2023-03-24T15:29:17;0.00;;;0.00;;
21634;SDS011;10979;48.306;9.830;2023-03-24T15:31:42;0.00;;;0.00;;
21634;SDS011;10979;48.306;9.830;2023-03-24T15:34:25;0.00;;;0.00;;
21634;SDS011;10979;48.306;9.830;2023-03-24T15:37:21;0.00;;;0.00;;
21634;SDS011;10979;48.306;9.830;2023-03-24T15:40:02;0.00;;;0.00;;
21634;SDS011;10979;48.306;9.830;2023-03-24T15:42:30;0.00;;;0.00;;
21634;SDS011;10979;48.306;9.830;2023-03-24T15:44:56;0.10;;;0.10;;
21634;SDS011;10979;48.306;9.830;2023-03-24T15:47:36;0.00;;;0.00;;
21634;SDS011;10979;48.306;9.830;2023-03-24T15:50:04;0.00;;;0.00;;
21634;SDS011;10979;48.306;9.830;2023-03-24T15:52:37;0.10;;;0.10;;
21634;SDS011;10979;48.306;9.830;2023-03-24T15:55:07;0.00;;;0.00;;
21634;SDS011;10979;48.306;9.830;2023-03-24T15:57:52;0.00;;;0.00;;
21634;SDS011;10979;48.306;9.830;2023-03-24T16:00:23;0.00;;;0.00;;
21634;SDS011;10979;48.306;9.830;2023-03-24T16:02:51;0.10;;;0.10;;
21634;SDS011;10979;48.306;9.830;2023-03-24T16:07:52;0.00;;;0.00;;
21634;SDS011;10979;48.306;9.830;2023-03-24T16:12:56;0.10;;;0.10;;
21634;SDS011;10979;48.306;9.830;2023-03-24T16:15:41;0.05;;;0.05;;
21634;SDS011;10979;48.306;9.830;2023-03-24T16:18:16;0.10;;;0.10;;
21634;SDS011;10979;48.306;9.830;2023-03-24T16:20:45;0.00;;;0.00;;
21634;SDS011;10979;48.306;9.830;2023-03-24T16:23:11;0.00;;;0.00;;
21634;SDS011;10979;48.306;9.830;2023-03-24T16:25:37;0.08;;;0.08;;
21634;SDS011;10979;48.306;9.830;2023-03-24T16:28:03;0.10;;;0.10;;
21634;SDS011;10979;48.306;9.830;2023-03-24T16:30:29;0.10;;;0.10;;
21634;SDS011;10979;48.306;9.830;2023-03-24T16:33:02;0.10;;;0.10;;
21634;SDS011;10979;48.306;9.830;2023-03-24T16:35:28;0.00;;;0.00;;
21634;SDS011;10979;48.306;9.830;2023-03-24T16:37:54;0.00;;;0.00;;
21634;SDS011;10979;48.306;9.830;2023-03-24T16:40:20;0.10;;;0.10;;
21634;SDS011;10979;48.306;9.830;2023-03-24T16:42:52;0.10;;;0.10;;
21634;SDS011;10979;48.306;9.830;2023-03-24T16:45:18;0.10;;;0.10;;
21634;SDS011;10979;48.306;9.830;2023-03-24T16:47:44;0.10;;;0.10;;
21634;SDS011;10979;48.306;9.830;2023-03-24T16:50:18;0.10;;;0.10;;
21634;SDS011;10979;48.306;9.830;2023-03-24T16:52:46;0.10;;;0.10;;
21634;SDS011;10979;48.306;9.830;2023-03-24T16:55:12;0.10;;;0.10;;
21634;SDS011;10979;48.306;9.830;2023-03-24T16:57:40;0.10;;;0.10;;
21634;SDS011;10979;48.306;9.830;2023-03-24T17:00:06;0.10;;;0.10;;
21634;SDS011;10979;48.306;9.830;2023-03-24T17:02:36;0.10;;;0.10;;
21634;SDS011;10979;48.306;9.830;2023-03-24T17:05:09;0.10;;;0.10;;
21634;SDS011;10979;48.306;9.830;2023-03-24T17:07:40;0.10;;;0.10;;
21634;SDS011;10979;48.306;9.830;2023-03-24T17:10:06;0.10;;;0.10;;
21634;SDS011;10979;48.306;9.830;2023-03-24T17:12:32;0.08;;;0.08;;
21634;SDS011;10979;48.306;9.830;2023-03-24T17:14:57;0.10;;;0.10;;
21634;SDS011;10979;48.306;9.830;2023-03-24T17:17:23;0.10;;;0.10;;
21634;SDS011;10979;48.306;9.830;2023-03-24T17:19:48;0.10;;;0.10;;
21634;SDS011;10979;48.306;9.830;2023-03-24T17:22:14;0.10;;;0.10;;
21634;SDS011;10979;48.306;9.830;2023-03-24T17:24:42;0.10;;;0.10;;
21634;SDS011;10979;48.306;9.830;2023-03-24T17:27:12;0.10;;;0.10;;
21634;SDS011;10979;48.306;9.830;2023-03-24T17:29:41;0.10;;;0.10;;
21634;SDS011;10979;48.306;9.830;2023-03-24T17:32:07;0.10;;;0.10;;
21634;SDS011;10979;48.306;9.830;2023-03-24T17:34:36;0.10;;;0.10;;
21634;SDS011;10979;48.306;9.830;2023-03-24T17:37:05;0.10;;;0.10;;
21634;SDS011;10979;48.306;9.830;2023-03-24T17:39:31;0.10;;;0.10;;
21634;SDS011;10979;48.306;9.830;2023-03-24T17:41:56;0.10;;;0.10;;
21634;SDS011;10979;48.306;9.830;2023-03-24T17:44:25;0.17;;;0.17;;
21634;SDS011;10979;48.306;9.830;2023-03-24T17:46:51;0.10;;;0.10;;
21634;SDS011;10979;48.306;9.830;2023-03-24T17:49:16;0.10;;;0.10;;
21634;SDS011;10979;48.306;9.830;2023-03-24T17:51:42;0.10;;;0.10;;
21634;SDS011;10979;48.306;9.830;2023-03-24T17:54:07;0.10;;;0.10;;
21634;SDS011;10979;48.306;9.830;2023-03-24T17:56:35;0.10;;;0.10;;
21634;SDS011;10979;48.306;9.830;2023-03-24T17:59:01;0.10;;;0.10;;
21634;SDS011;10979;48.306;9.830;2023-03-24T18:01:28;0.10;;;0.10;;